Time;durP1;ratioP1;P1;durP2;ratioP2;P2;SDS_P1;SDS_P2;PMS_P1;PMS_P2;Temp;Humidity;BMP_temperature;BMP_pressure;BME280_temperature;BME280_humidity;BME280_pressure;Samples;Min_cycle;Max_cycle;Signal;HPM_P1;HPM_P2
2022/12/18 00:01:05;;;;;;;79.28;33.45;;;-3.00;99.90;;;;;;5163878;27;20250;-50
2022/12/18 00:03:33;;;;;;;77.25;33.13;;;-3.10;99.90;;;;;;5164069;27;20095;-53
2022/12/18 00:05:59;;;;;;;80.35;31.60;;;-3.10;99.90;;;;;;5164037;27;20486;-53
2022/12/18 00:08:24;;;;;;;80.65;32.17;;;-3.10;99.90;;;;;;5164136;27;20070;-53
2022/12/18 00:10:50;;;;;;;83.25;33.90;;;-2.90;99.90;;;;;;5163699;27;20035;-52
2022/12/18 00:13:16;;;;;;;82.30;32.30;;;-3.00;99.90;;;;;;5163717;27;20039;-53
2022/12/18 00:15:41;;;;;;;81.38;33.40;;;-3.10;99.90;;;;;;5163836;27;20042;-53
2022/12/18 00:18:07;;;;;;;81.95;31.80;;;-2.80;99.90;;;;;;5164114;27;20039;-52
2022/12/18 00:20:39;;;;;;;78.13;29.95;;;-2.90;99.90;;;;;;5144987;27;20050;-53
2022/12/18 00:23:06;;;;;;;74.45;28.67;;;-3.10;99.90;;;;;;5163512;27;20043;-51
2022/12/18 00:25:36;;;;;;;81.65;31.95;;;-2.90;99.90;;;;;;5163994;27;20113;-53
2022/12/18 00:28:03;;;;;;;84.72;30.35;;;-3.10;99.90;;;;;;5163576;27;20103;-53
2022/12/18 00:30:29;;;;;;;83.40;33.30;;;-3.00;99.90;;;;;;5163668;27;20071;-52
2022/12/18 00:32:54;;;;;;;78.28;33.17;;;-3.20;99.90;;;;;;5163403;27;20035;-52
2022/12/18 00:35:20;;;;;;;84.88;33.15;;;-3.10;99.90;;;;;;5163733;27;20035;-52
2022/12/18 00:37:46;;;;;;;86.35;33.42;;;-3.10;99.90;;;;;;5163539;27;20039;-53
2022/12/18 00:40:12;;;;;;;80.32;32.72;;;-3.10;99.90;;;;;;5163320;27;20069;-52
2022/12/18 00:42:56;;;;;;;72.25;28.77;;;-3.20;99.90;;;;;;5163220;27;20046;-54
2022/12/18 00:45:27;;;;;;;79.55;31.45;;;-3.10;99.90;;;;;;5143806;27;20453;-53
2022/12/18 00:47:53;;;;;;;79.60;32.25;;;-3.10;99.90;;;;;;5163147;27;20035;-53
2022/12/18 00:50:19;;;;;;;76.28;30.30;;;-3.20;99.90;;;;;;5163246;27;20106;-52
2022/12/18 00:52:45;;;;;;;88.82;31.98;;;-3.10;99.90;;;;;;5162950;27;20062;-53
2022/12/18 00:55:11;;;;;;;81.50;31.13;;;-3.30;99.90;;;;;;5160274;27;20038;-54
2022/12/18 00:57:37;;;;;;;77.97;31.00;;;-3.30;99.90;;;;;;5142090;27;20069;-54
2022/12/18 01:00:05;;;;;;;80.28;30.85;;;-3.20;99.90;;;;;;5142574;27;20043;-53
2022/12/18 01:02:31;;;;;;;76.65;30.48;;;-3.30;99.90;;;;;;5141564;27;20510;-53
2022/12/18 01:04:57;;;;;;;73.88;30.45;;;-3.30;99.90;;;;;;5142309;27;20147;-52
2022/12/18 01:07:22;;;;;;;84.63;31.17;;;-3.20;99.90;;;;;;5141980;27;20031;-51
2022/12/18 01:09:48;;;;;;;77.82;29.58;;;-3.20;99.90;;;;;;5142017;27;20091;-53
2022/12/18 01:12:14;;;;;;;73.05;29.08;;;-3.30;99.90;;;;;;5141926;27;20036;-52
2022/12/18 01:14:39;;;;;;;78.55;31.02;;;-3.20;99.90;;;;;;5141883;27;20039;-54
2022/12/18 01:17:05;;;;;;;70.13;28.65;;;-3.30;99.90;;;;;;5141774;27;20303;-55
2022/12/18 01:19:31;;;;;;;70.85;28.85;;;-3.30;99.90;;;;;;5142026;27;20043;-54
2022/12/18 01:21:57;;;;;;;77.72;28.98;;;-3.40;99.90;;;;;;5141809;27;20043;-55
2022/12/18 01:24:23;;;;;;;73.13;27.75;;;-3.30;99.90;;;;;;5141728;27;20046;-53
2022/12/18 01:26:48;;;;;;;66.10;28.60;;;-3.40;99.90;;;;;;5141835;27;20051;-54
2022/12/18 01:29:14;;;;;;;72.10;28.58;;;-3.40;99.90;;;;;;5141664;27;20103;-51
2022/12/18 01:31:40;;;;;;;73.65;29.75;;;-3.40;99.90;;;;;;5141297;27;20047;-55
2022/12/18 01:34:05;;;;;;;71.60;27.55;;;-3.60;99.90;;;;;;5123356;27;20100;-54
2022/12/18 01:36:34;;;;;;;74.32;29.48;;;-3.60;99.90;;;;;;5141326;27;20126;-54
2022/12/18 01:39:03;;;;;;;82.65;29.13;;;-3.40;99.90;;;;;;5141684;27;20047;-54
2022/12/18 01:42:01;;;;;;;82.03;29.85;;;-3.40;99.90;;;;;;5122748;27;20047;-51
2022/12/18 01:44:47;;;;;;;76.40;30.02;;;-3.50;99.90;;;;;;5140962;27;20049;-52
2022/12/18 01:47:37;;;;;;;77.55;27.83;;;-3.50;99.90;;;;;;5141274;27;20065;-53
2022/12/18 01:50:12;;;;;;;73.88;30.60;;;-3.50;99.90;;;;;;5141150;27;20047;-50
2022/12/18 01:52:40;;;;;;;68.63;27.80;;;-3.40;99.90;;;;;;5141114;27;20043;-52
2022/12/18 01:55:08;;;;;;;74.85;27.60;;;-3.50;99.90;;;;;;5143505;27;20116;-53
2022/12/18 01:57:34;;;;;;;72.05;28.13;;;-3.60;99.90;;;;;;5161598;27;20494;-53
2022/12/18 02:00:07;;;;;;;73.93;28.50;;;-3.60;99.90;;;;;;5161773;27;20043;-53
2022/12/18 02:02:32;;;;;;;75.22;28.45;;;-3.50;99.90;;;;;;5161375;27;20066;-52
2022/12/18 02:04:58;;;;;;;69.82;26.70;;;-3.60;99.90;;;;;;5161842;27;20053;-53
2022/12/18 02:07:45;;;;;;;66.53;27.88;;;-3.70;99.90;;;;;;5142893;27;20082;-52
2022/12/18 02:10:19;;;;;;;69.28;26.15;;;-3.80;99.90;;;;;;5161459;27;20047;-55
2022/12/18 02:12:58;;;;;;;73.80;25.73;;;-3.80;99.90;;;;;;5142905;27;20050;-54
2022/12/18 02:15:29;;;;;;;69.10;27.45;;;-3.80;99.90;;;;;;5161445;27;20087;-54
2022/12/18 02:17:57;;;;;;;61.88;26.02;;;-3.80;99.90;;;;;;5161547;27;20050;-53
2022/12/18 02:20:31;;;;;;;69.68;27.45;;;-3.80;99.90;;;;;;5161784;27;20444;-52
2022/12/18 02:23:09;;;;;;;69.90;26.92;;;-3.90;99.90;;;;;;5161150;27;20053;-54
2022/12/18 02:26:00;;;;;;;64.88;25.13;;;-3.90;99.90;;;;;;5161404;27;20510;-53
2022/12/18 02:28:30;;;;;;;66.18;25.58;;;-4.00;99.90;;;;;;5161233;27;20444;-53
2022/12/18 02:30:59;;;;;;;71.80;28.27;;;-3.90;99.90;;;;;;5161511;27;20043;-54
2022/12/18 02:33:27;;;;;;;65.38;25.48;;;-4.00;99.90;;;;;;5142619;27;20050;-51
2022/12/18 02:35:55;;;;;;;62.58;25.77;;;-4.10;99.90;;;;;;5161069;27;20049;-53
2022/12/18 02:38:21;;;;;;;70.38;27.77;;;-4.00;99.90;;;;;;5160491;27;20117;-53
2022/12/18 02:40:49;;;;;;;68.18;27.73;;;-4.00;99.90;;;;;;5160900;27;20054;-52
2022/12/18 02:43:15;;;;;;;68.22;26.38;;;-4.00;99.90;;;;;;5160863;27;20046;-53
2022/12/18 02:45:50;;;;;;;66.47;26.48;;;-4.10;99.90;;;;;;5160997;27;20058;-55
2022/12/18 02:48:19;;;;;;;61.97;25.33;;;-4.00;99.90;;;;;;5160932;27;20038;-54
2022/12/18 02:50:56;;;;;;;64.30;25.67;;;-4.10;99.90;;;;;;5160721;27;20043;-53
2022/12/18 02:53:36;;;;;;;71.07;28.38;;;-4.20;99.90;;;;;;5160711;27;20035;-52
2022/12/18 02:56:20;;;;;;;70.15;25.50;;;-4.10;99.90;;;;;;5132283;27;20051;-53
2022/12/18 02:59:00;;;;;;;64.03;25.48;;;-4.20;99.90;;;;;;5139842;27;20080;-51
2022/12/18 03:01:45;;;;;;;69.80;28.60;;;-4.20;99.90;;;;;;5139843;27;20051;-54
2022/12/18 03:04:30;;;;;;;67.10;27.85;;;-4.20;99.90;;;;;;5121332;27;20051;-53
2022/12/18 03:06:58;;;;;;;64.00;26.20;;;-4.30;99.90;;;;;;5139881;27;20485;-54
2022/12/18 03:09:42;;;;;;;68.22;27.27;;;-4.00;99.90;;;;;;5139468;27;20054;-54
2022/12/18 03:12:22;;;;;;;76.00;28.30;;;-4.20;99.90;;;;;;5139896;27;20046;-54
2022/12/18 03:14:54;;;;;;;73.82;27.45;;;-4.20;99.90;;;;;;5139479;27;20058;-53
2022/12/18 03:17:23;;;;;;;70.38;26.50;;;-4.40;99.90;;;;;;5139840;28;20057;-54
2022/12/18 03:19:51;;;;;;;63.83;26.40;;;-4.30;99.90;;;;;;5139794;28;20054;-54
2022/12/18 03:22:18;;;;;;;71.85;27.23;;;-4.40;99.90;;;;;;5139793;28;20093;-55
2022/12/18 03:24:45;;;;;;;70.70;29.40;;;-4.30;99.90;;;;;;5139872;28;20082;-54
2022/12/18 03:27:15;;;;;;;75.82;28.38;;;-4.30;99.90;;;;;;5139672;28;20043;-54
2022/12/18 03:30:12;;;;;;;71.57;27.45;;;-4.40;99.90;;;;;;5139820;28;20043;-53
2022/12/18 03:32:56;;;;;;;64.40;26.77;;;-4.40;99.90;;;;;;5117143;28;20502;-54
2022/12/18 03:35:31;;;;;;;71.20;27.80;;;-4.40;99.90;;;;;;5139777;28;20406;-54
2022/12/18 03:37:56;;;;;;;68.30;28.95;;;-4.50;99.90;;;;;;5139928;28;20103;-53
2022/12/18 03:40:31;;;;;;;78.40;29.63;;;-4.50;99.90;;;;;;5139415;28;20075;-53
2022/12/18 03:43:06;;;;;;;74.95;29.50;;;-4.50;99.90;;;;;;5139020;28;20035;-53
2022/12/18 03:45:37;;;;;;;74.60;29.90;;;-4.50;99.90;;;;;;5139413;28;20043;-53
2022/12/18 03:48:17;;;;;;;75.10;29.42;;;-4.50;99.90;;;;;;5139866;28;20075;-53
2022/12/18 03:50:53;;;;;;;77.22;27.23;;;-4.40;99.90;;;;;;5121268;28;20407;-53
2022/12/18 03:53:32;;;;;;;75.38;31.23;;;-4.50;99.90;;;;;;5139308;28;20028;-54
2022/12/18 03:56:00;;;;;;;68.57;26.95;;;-4.60;99.90;;;;;;5139557;28;20047;-53
2022/12/18 03:58:27;;;;;;;63.83;25.98;;;-4.50;99.90;;;;;;5139291;28;20139;-53
2022/12/18 04:00:56;;;;;;;67.28;27.52;;;-4.50;99.90;;;;;;5139190;28;20554;-54
2022/12/18 04:03:24;;;;;;;68.20;28.77;;;-4.60;99.90;;;;;;5139352;28;20111;-55
2022/12/18 04:05:52;;;;;;;62.85;26.33;;;-4.70;99.90;;;;;;5139113;28;20051;-53
2022/12/18 04:08:19;;;;;;;67.75;28.23;;;-4.60;99.90;;;;;;5139726;28;20070;-55
2022/12/18 04:10:44;;;;;;;74.65;26.83;;;-4.60;99.90;;;;;;5139212;28;20035;-55
2022/12/18 04:13:10;;;;;;;68.63;27.27;;;-4.70;99.90;;;;;;5139143;28;20080;-55
2022/12/18 04:15:37;;;;;;;68.10;27.88;;;-4.70;99.90;;;;;;5139089;28;20053;-53
2022/12/18 04:18:03;;;;;;;66.22;27.15;;;-4.70;99.90;;;;;;5139593;28;20043;-54
2022/12/18 04:20:29;;;;;;;65.35;26.02;;;-4.70;99.90;;;;;;5139899;27;20043;-52
2022/12/18 04:22:54;;;;;;;70.03;28.90;;;-4.60;99.90;;;;;;5142879;27;20046;-53
2022/12/18 04:25:20;;;;;;;70.35;29.80;;;-4.70;99.90;;;;;;5143110;27;20055;-54
2022/12/18 04:27:46;;;;;;;64.13;26.45;;;-4.80;99.90;;;;;;5142879;27;20110;-55
2022/12/18 04:30:11;;;;;;;70.50;28.35;;;-4.70;99.90;;;;;;5142884;27;20047;-54
2022/12/18 04:32:37;;;;;;;66.70;26.92;;;-4.70;99.90;;;;;;5142920;27;20054;-53
2022/12/18 04:35:04;;;;;;;73.38;28.63;;;-4.80;99.90;;;;;;5142760;27;20047;-54
2022/12/18 04:37:30;;;;;;;77.20;29.77;;;-4.70;99.90;;;;;;5161415;27;20118;-53
2022/12/18 04:39:55;;;;;;;69.65;27.10;;;-4.60;99.90;;;;;;5163241;27;20448;-55
2022/12/18 04:42:21;;;;;;;68.15;28.73;;;-4.20;99.90;;;;;;5163218;27;20031;-55
2022/12/18 04:44:46;;;;;;;68.40;29.40;;;-4.70;99.90;;;;;;5144406;27;20031;-55
2022/12/18 04:47:12;;;;;;;67.53;27.65;;;-4.70;99.90;;;;;;5163292;27;20062;-54
2022/12/18 04:49:38;;;;;;;70.20;28.02;;;-4.70;99.90;;;;;;5163209;27;20126;-54
2022/12/18 04:52:03;;;;;;;62.53;25.20;;;-4.70;99.90;;;;;;5144693;27;20261;-55
2022/12/18 04:54:29;;;;;;;63.80;27.83;;;-4.80;99.90;;;;;;5163044;27;20043;-55
2022/12/18 04:56:55;;;;;;;65.85;26.20;;;-4.70;99.90;;;;;;5145170;27;20035;-56
2022/12/18 04:59:20;;;;;;;63.30;25.67;;;-4.90;99.90;;;;;;5142373;27;20047;-55
2022/12/18 05:01:46;;;;;;;65.55;26.95;;;-4.80;99.90;;;;;;5123501;27;20050;-53
2022/12/18 05:04:12;;;;;;;67.05;28.42;;;-4.70;99.90;;;;;;5106677;27;20065;-55
2022/12/18 05:06:37;;;;;;;61.90;26.80;;;-4.80;99.90;;;;;;5141806;27;20075;-52
2022/12/18 05:09:03;;;;;;;63.55;25.65;;;-4.80;99.90;;;;;;5142210;27;20047;-55
2022/12/18 05:11:28;;;;;;;64.40;25.55;;;-4.80;99.90;;;;;;5141866;27;20047;-54
2022/12/18 05:13:54;;;;;;;63.55;25.77;;;-4.80;99.90;;;;;;5141918;27;20087;-52
2022/12/18 05:16:20;;;;;;;70.40;24.75;;;-4.80;99.90;;;;;;5123417;27;20104;-52
2022/12/18 05:18:45;;;;;;;60.65;25.10;;;-4.80;99.90;;;;;;5141658;27;20190;-54
2022/12/18 05:21:11;;;;;;;60.58;25.13;;;-4.80;99.90;;;;;;5142218;27;20054;-56
2022/12/18 05:23:37;;;;;;;58.83;25.60;;;-4.80;99.90;;;;;;5141828;27;20039;-54
2022/12/18 05:26:05;;;;;;;63.75;25.33;;;-4.90;99.90;;;;;;5142026;27;20370;-52
2022/12/18 05:28:32;;;;;;;65.22;25.42;;;-4.90;99.90;;;;;;5141525;27;20051;-53
2022/12/18 05:31:00;;;;;;;63.10;25.67;;;-4.90;99.90;;;;;;5141382;27;20360;-55
2022/12/18 05:33:28;;;;;;;59.50;25.23;;;-4.90;99.90;;;;;;5141442;27;20082;-53
2022/12/18 05:35:59;;;;;;;61.85;26.98;;;-4.90;99.90;;;;;;5141372;27;20122;-52
2022/12/18 05:38:26;;;;;;;61.63;25.40;;;-4.80;99.90;;;;;;5141463;27;20043;-52
2022/12/18 05:40:52;;;;;;;60.22;24.60;;;-4.90;99.90;;;;;;5141412;27;20050;-54
2022/12/18 05:43:21;;;;;;;60.05;26.42;;;-4.90;99.90;;;;;;5141475;27;20078;-52
2022/12/18 05:45:47;;;;;;;59.63;23.27;;;-5.00;99.90;;;;;;5140938;27;20042;-53
2022/12/18 05:48:13;;;;;;;57.20;24.20;;;-5.00;99.90;;;;;;5141174;27;20050;-54
2022/12/18 05:50:41;;;;;;;60.72;24.55;;;-5.00;99.90;;;;;;5122954;27;20043;-52
2022/12/18 05:53:08;;;;;;;58.22;25.63;;;-5.00;99.90;;;;;;5141227;27;20057;-52
2022/12/18 05:55:38;;;;;;;58.38;23.95;;;-5.00;99.90;;;;;;5122537;27;20051;-53
2022/12/18 05:58:05;;;;;;;55.50;24.38;;;-5.00;99.90;;;;;;5122437;27;20095;-54
2022/12/18 06:00:33;;;;;;;57.70;24.25;;;-5.10;99.90;;;;;;5141005;27;20039;-52
2022/12/18 06:02:59;;;;;;;56.45;22.88;;;-5.10;99.90;;;;;;5140531;27;20074;-54
2022/12/18 06:05:25;;;;;;;64.32;24.85;;;-5.10;99.90;;;;;;5140959;27;20050;-55
2022/12/18 06:07:51;;;;;;;63.80;24.63;;;-5.10;99.90;;;;;;5141210;27;20055;-54
2022/12/18 06:10:16;;;;;;;62.35;23.98;;;-5.10;99.90;;;;;;5122496;27;20039;-55
2022/12/18 06:12:42;;;;;;;59.10;23.63;;;-5.10;99.90;;;;;;5140670;27;20039;-52
2022/12/18 06:15:08;;;;;;;62.00;24.33;;;-5.10;99.90;;;;;;5140433;27;20479;-52
2022/12/18 06:17:34;;;;;;;59.10;24.00;;;-5.10;99.90;;;;;;5140964;27;20086;-53
2022/12/18 06:20:01;;;;;;;52.78;21.45;;;-5.20;99.90;;;;;;5140778;27;20042;-54
2022/12/18 06:22:27;;;;;;;58.53;23.05;;;-5.10;99.90;;;;;;5140540;27;20051;-53
2022/12/18 06:24:53;;;;;;;54.78;23.60;;;-5.10;99.90;;;;;;5140582;27;20090;-53
2022/12/18 06:27:19;;;;;;;57.67;23.95;;;-5.20;99.90;;;;;;5121870;27;20043;-53
2022/12/18 06:29:45;;;;;;;60.90;22.95;;;-5.10;99.90;;;;;;5140474;27;20043;-54
2022/12/18 06:32:11;;;;;;;57.83;22.65;;;-5.10;99.90;;;;;;5140023;27;20058;-54
2022/12/18 06:34:40;;;;;;;55.08;22.73;;;-5.00;99.90;;;;;;5140554;27;20047;-55
2022/12/18 06:37:05;;;;;;;57.47;23.40;;;-5.10;99.90;;;;;;5140207;27;20042;-52
2022/12/18 06:39:31;;;;;;;53.33;22.42;;;-5.00;99.90;;;;;;5140665;27;20046;-54
2022/12/18 06:41:57;;;;;;;61.65;24.73;;;-5.10;99.90;;;;;;5117919;27;20464;-53
2022/12/18 06:44:22;;;;;;;66.78;24.63;;;-5.20;99.90;;;;;;5135633;27;20104;-54
2022/12/18 06:46:48;;;;;;;54.20;21.98;;;-5.20;99.90;;;;;;5136547;27;20486;-52
2022/12/18 06:49:14;;;;;;;60.22;25.35;;;-5.20;99.90;;;;;;5136260;27;20082;-53
2022/12/18 06:51:39;;;;;;;58.53;21.77;;;-5.10;99.90;;;;;;5136337;27;20066;-54
2022/12/18 06:54:05;;;;;;;50.47;22.25;;;-5.20;99.90;;;;;;5135868;27;20039;-51
2022/12/18 06:56:31;;;;;;;51.20;21.75;;;-5.10;99.90;;;;;;5132145;27;20435;-54
2022/12/18 06:58:56;;;;;;;54.05;21.85;;;-5.20;99.90;;;;;;5138386;27;20054;-51
2022/12/18 07:01:22;;;;;;;51.30;22.23;;;-5.30;99.90;;;;;;5156476;27;20046;-55
2022/12/18 07:03:53;;;;;;;56.33;22.02;;;-5.20;99.90;;;;;;5134500;27;20051;-52
2022/12/18 07:06:22;;;;;;;53.80;21.85;;;-5.30;99.90;;;;;;5135408;27;20043;-55
2022/12/18 07:08:49;;;;;;;49.15;21.80;;;-5.20;99.90;;;;;;5136055;27;20047;-51
2022/12/18 07:11:16;;;;;;;55.13;23.27;;;-5.30;99.90;;;;;;5135701;27;20047;-54
2022/12/18 07:13:42;;;;;;;54.65;21.63;;;-5.30;99.90;;;;;;5135974;27;20047;-55
2022/12/18 07:16:19;;;;;;;57.85;24.65;;;-5.40;99.90;;;;;;5136122;27;20045;-53
2022/12/18 07:18:45;;;;;;;55.60;22.02;;;-5.30;99.90;;;;;;5135285;27;20050;-54
2022/12/18 07:21:13;;;;;;;46.85;20.05;;;-5.40;99.90;;;;;;5136233;28;20051;-55
2022/12/18 07:23:38;;;;;;;49.13;22.67;;;-5.30;99.90;;;;;;5117005;28;20339;-53
2022/12/18 07:26:10;;;;;;;44.47;22.25;;;-5.20;99.90;;;;;;5135873;27;20043;-54
2022/12/18 07:28:37;;;;;;;47.40;21.30;;;-5.20;99.90;;;;;;5135616;27;20533;-51
2022/12/18 07:31:08;;;;;;;48.58;20.90;;;-5.20;99.90;;;;;;5135672;27;20284;-50
2022/12/18 07:33:35;;;;;;;48.05;19.30;;;-5.20;99.90;;;;;;5135821;27;20043;-54
2022/12/18 07:36:03;;;;;;;52.22;21.50;;;-5.20;99.90;;;;;;5135688;27;20040;-54
2022/12/18 07:38:28;;;;;;;56.63;21.02;;;-5.20;99.90;;;;;;5117110;28;20424;-54
2022/12/18 07:40:54;;;;;;;42.35;19.60;;;-5.10;99.90;;;;;;5135128;28;20035;-54
2022/12/18 07:43:20;;;;;;;49.70;22.92;;;-5.20;99.90;;;;;;5134609;28;20268;-53
2022/12/18 07:45:48;;;;;;;45.22;19.00;;;-5.20;99.90;;;;;;5135879;28;20491;-52
2022/12/18 07:48:14;;;;;;;47.88;20.30;;;-5.10;99.90;;;;;;5135777;27;20123;-52
2022/12/18 07:50:40;;;;;;;48.75;19.70;;;-5.10;99.90;;;;;;5134498;28;20574;-51
2022/12/18 07:53:05;;;;;;;45.88;21.02;;;-5.10;99.90;;;;;;5116454;28;20136;-53
2022/12/18 07:55:31;;;;;;;44.60;19.42;;;-5.10;99.90;;;;;;5132247;27;20059;-53
2022/12/18 07:58:00;;;;;;;42.90;20.80;;;-5.20;99.90;;;;;;5128986;27;20039;-52
2022/12/18 08:00:25;;;;;;;43.85;20.17;;;-5.10;99.90;;;;;;5138054;27;20418;-51
2022/12/18 08:02:51;;;;;;;40.13;19.35;;;-5.10;99.90;;;;;;5144007;27;20055;-54
2022/12/18 08:05:17;;;;;;;38.58;17.85;;;-5.10;99.90;;;;;;5159836;27;20106;-53
2022/12/18 08:07:43;;;;;;;39.33;18.55;;;-5.00;99.90;;;;;;5160500;27;20127;-53
2022/12/18 08:10:08;;;;;;;43.92;19.02;;;-5.00;99.90;;;;;;5159942;27;20458;-52
2022/12/18 08:12:34;;;;;;;39.35;18.33;;;-5.00;99.90;;;;;;5159978;27;20046;-53
2022/12/18 08:15:00;;;;;;;40.33;20.08;;;-5.00;99.90;;;;;;5159574;27;20592;-54
2022/12/18 08:17:25;;;;;;;40.65;18.55;;;-4.90;99.90;;;;;;5159809;27;20066;-54
2022/12/18 08:19:51;;;;;;;40.92;18.30;;;-4.90;99.90;;;;;;5159764;27;20157;-54
2022/12/18 08:22:16;;;;;;;39.28;19.13;;;-4.90;99.90;;;;;;5159907;27;20050;-51
2022/12/18 08:24:42;;;;;;;38.28;19.50;;;-4.80;99.90;;;;;;5160017;27;20071;-51
2022/12/18 08:27:08;;;;;;;34.03;17.27;;;-4.90;99.90;;;;;;5159925;27;20043;-53
2022/12/18 08:29:33;;;;;;;38.67;17.33;;;-4.80;99.90;;;;;;5159464;27;20050;-50
2022/12/18 08:31:59;;;;;;;36.35;17.80;;;-4.80;99.90;;;;;;5159776;27;20120;-54
2022/12/18 08:34:25;;;;;;;37.13;17.77;;;-4.70;99.90;;;;;;5159568;27;20046;-52
2022/12/18 08:36:51;;;;;;;36.83;18.52;;;-4.70;99.90;;;;;;5159710;27;20117;-50
2022/12/18 08:39:16;;;;;;;35.22;17.60;;;-4.80;99.90;;;;;;5159608;27;20053;-54
2022/12/18 08:41:42;;;;;;;34.53;17.25;;;-4.70;99.90;;;;;;5158618;27;20042;-53
2022/12/18 08:46:52;;;;;;;36.97;16.83;;;-4.70;99.90;;;;;;5159592;27;20518;-53
2022/12/18 08:49:17;;;;;;;35.17;16.25;;;-4.70;99.90;;;;;;5159157;27;20042;-51
2022/12/18 08:51:43;;;;;;;40.35;19.00;;;-4.70;99.90;;;;;;5159468;27;20561;-51
2022/12/18 08:54:12;;;;;;;39.17;18.15;;;-4.60;99.90;;;;;;5158428;27;20043;-52
2022/12/18 08:56:38;;;;;;;40.72;18.25;;;-4.60;99.90;;;;;;5143448;27;20118;-54
2022/12/18 08:59:04;;;;;;;33.25;16.88;;;-4.60;99.90;;;;;;5120421;27;20046;-51
2022/12/18 09:01:29;;;;;;;40.17;18.15;;;-4.60;99.90;;;;;;5138044;27;20222;-53
2022/12/18 09:03:55;;;;;;;37.90;18.10;;;-4.60;99.90;;;;;;5138117;27;20051;-54
2022/12/18 09:06:22;;;;;;;35.85;18.27;;;-4.50;99.90;;;;;;5140782;27;20046;-52
2022/12/18 09:08:48;;;;;;;35.22;17.73;;;-4.50;99.90;;;;;;5147945;27;20030;-55
2022/12/18 09:11:20;;;;;;;32.05;16.42;;;-4.40;99.90;;;;;;5129721;27;20089;-54
2022/12/18 09:13:46;;;;;;;35.65;17.55;;;-4.40;99.90;;;;;;5137287;27;20447;-52
2022/12/18 09:16:11;;;;;;;33.20;18.45;;;-4.40;99.90;;;;;;5148473;27;20073;-50
2022/12/18 09:18:37;;;;;;;36.00;18.65;;;-4.30;99.90;;;;;;5148938;27;20407;-54
2022/12/18 09:21:14;;;;;;;33.80;17.60;;;-4.30;99.90;;;;;;5158890;27;20053;-54
2022/12/18 09:23:40;;;;;;;33.83;17.08;;;-4.30;99.90;;;;;;5158787;27;20039;-54
2022/12/18 09:26:07;;;;;;;38.88;18.90;;;-4.30;99.90;;;;;;5139783;27;20046;-53
2022/12/18 09:28:33;;;;;;;37.58;16.77;;;-4.30;99.90;;;;;;5158467;27;20117;-54
2022/12/18 09:30:58;;;;;;;34.22;16.40;;;-4.20;99.90;;;;;;5157589;27;20123;-54
2022/12/18 09:33:24;;;;;;;31.58;16.50;;;-4.20;99.90;;;;;;5158565;27;20115;-52
2022/12/18 09:35:50;;;;;;;33.92;16.88;;;-4.10;99.90;;;;;;5139184;27;20057;-53
2022/12/18 09:38:18;;;;;;;29.20;17.80;;;-4.10;99.90;;;;;;5158511;27;20047;-51
2022/12/18 09:40:47;;;;;;;34.25;17.42;;;-4.00;99.90;;;;;;5157953;27;20059;-53
2022/12/18 09:43:34;;;;;;;33.17;17.75;;;-3.80;99.90;;;;;;5157830;27;20536;-53
2022/12/18 09:46:11;;;;;;;38.13;17.33;;;-3.90;99.90;;;;;;5158086;27;20076;-55
2022/12/18 09:48:41;;;;;;;32.50;16.38;;;-3.80;99.90;;;;;;5157875;27;20077;-54
2022/12/18 09:51:15;;;;;;;34.92;17.08;;;-3.90;99.90;;;;;;5158059;27;20554;-53
2022/12/18 09:53:47;;;;;;;31.10;14.82;;;-3.80;99.90;;;;;;5136703;27;20035;-53
2022/12/18 09:56:17;;;;;;;33.40;18.10;;;-3.80;99.90;;;;;;5148805;27;20041;-50
2022/12/18 09:58:55;;;;;;;30.50;15.57;;;-3.70;99.90;;;;;;5158148;27;20549;-50
2022/12/18 10:01:24;;;;;;;30.08;16.38;;;-3.80;99.90;;;;;;5157448;27;20055;-54
2022/12/18 10:03:53;;;;;;;33.13;16.90;;;-3.70;99.90;;;;;;5157660;27;20050;-53
2022/12/18 10:07:01;;;;;;;28.45;14.88;;;-3.70;99.90;;;;;;5156909;27;20051;-52
2022/12/18 10:09:33;;;;;;;26.30;14.23;;;-3.70;99.90;;;;;;5156773;27;20305;-52
2022/12/18 10:12:23;;;;;;;28.40;15.23;;;-3.60;99.90;;;;;;5157444;27;20046;-53
2022/12/18 10:15:06;;;;;;;30.27;15.15;;;-3.60;99.90;;;;;;5157430;27;20287;-51
2022/12/18 10:17:35;;;;;;;30.48;14.52;;;-3.50;99.90;;;;;;5156929;27;20397;-53
2022/12/18 10:20:11;;;;;;;26.92;14.85;;;-3.40;99.90;;;;;;5156810;27;20050;-51
2022/12/18 10:22:40;;;;;;;26.33;14.43;;;-3.40;99.90;;;;;;5156883;27;20035;-54
2022/12/18 10:25:47;;;;;;;27.65;13.95;;;-3.30;99.90;;;;;;5157411;27;20046;-53
2022/12/18 10:28:15;;;;;;;26.08;13.70;;;-3.30;99.90;;;;;;5048851;28;20055;-53
2022/12/18 10:30:42;;;;;;;26.50;13.73;;;-3.30;99.90;;;;;;5125300;27;20061;-55
2022/12/18 10:33:15;;;;;;;26.55;15.77;;;-3.30;99.90;;;;;;5143291;27;20031;-54
2022/12/18 10:35:42;;;;;;;25.50;13.57;;;-3.30;99.90;;;;;;5147024;27;20059;-51
2022/12/18 10:38:14;;;;;;;26.55;13.18;;;-3.30;99.90;;;;;;5145470;27;20047;-52
2022/12/18 10:40:51;;;;;;;28.15;14.20;;;-3.30;99.90;;;;;;5145663;27;20042;-51
2022/12/18 10:43:30;;;;;;;26.38;13.80;;;-3.30;99.90;;;;;;5139279;27;20464;-52
2022/12/18 10:46:07;;;;;;;23.73;12.32;;;-3.30;99.90;;;;;;5136203;27;20039;-50
2022/12/18 10:48:41;;;;;;;25.50;13.27;;;-3.30;99.90;;;;;;5141327;27;20051;-54
2022/12/18 10:51:07;;;;;;;25.67;13.57;;;-3.30;99.90;;;;;;5146085;27;20042;-53
2022/12/18 10:53:36;;;;;;;25.83;13.27;;;-3.20;99.90;;;;;;5136929;27;20051;-53
2022/12/18 10:56:04;;;;;;;25.20;13.25;;;-3.20;99.90;;;;;;5146767;27;20039;-50
2022/12/18 10:58:35;;;;;;;21.33;12.57;;;-3.20;99.90;;;;;;5156871;27;20599;-54
2022/12/18 11:01:09;;;;;;;27.35;13.70;;;-3.10;99.90;;;;;;5155690;27;20035;-53
2022/12/18 11:03:37;;;;;;;28.13;14.48;;;-3.00;99.90;;;;;;5136335;27;20043;-54
2022/12/18 11:06:15;;;;;;;26.73;13.80;;;-3.00;99.90;;;;;;5135373;27;20156;-53
2022/12/18 11:08:42;;;;;;;24.05;12.88;;;-2.90;99.90;;;;;;5136307;27;20506;-53
2022/12/18 11:11:20;;;;;;;23.30;12.07;;;-2.90;99.90;;;;;;5136063;27;20099;-52
2022/12/18 11:14:21;;;;;;;21.50;11.55;;;-2.80;99.90;;;;;;5135871;27;20068;-51
2022/12/18 11:16:48;;;;;;;21.30;11.13;;;-2.70;99.90;;;;;;5135919;27;20044;-51
2022/12/18 11:19:31;;;;;;;20.67;11.32;;;-2.70;99.90;;;;;;5135638;28;20249;-53
2022/12/18 11:21:57;;;;;;;19.30;10.82;;;-2.70;99.90;;;;;;5136022;28;20083;-53
2022/12/18 11:24:35;;;;;;;17.58;9.75;;;-2.70;99.90;;;;;;5135965;28;20068;-54
2022/12/18 11:27:03;;;;;;;21.83;10.90;;;-2.60;99.90;;;;;;5135282;28;20039;-53
2022/12/18 11:29:39;;;;;;;19.10;10.63;;;-2.60;99.90;;;;;;5137866;27;20770;-55
2022/12/18 11:32:28;;;;;;;18.80;10.20;;;-2.50;99.90;;;;;;5143803;27;20074;-55
2022/12/18 11:35:19;;;;;;;18.42;9.45;;;-2.50;99.90;;;;;;5125315;27;20078;-54
2022/12/18 11:37:53;;;;;;;18.67;9.73;;;-2.50;99.90;;;;;;5143031;27;20126;-52
2022/12/18 11:40:24;;;;;;;19.85;9.50;;;-2.50;99.90;;;;;;5143720;27;20039;-52
2022/12/18 11:43:06;;;;;;;16.65;8.82;;;-2.50;99.90;;;;;;5143336;27;20051;-53
2022/12/18 11:45:41;;;;;;;17.10;9.02;;;-2.40;99.90;;;;;;5143412;27;20050;-55
2022/12/18 11:48:37;;;;;;;15.30;9.38;;;-2.40;99.90;;;;;;5143246;27;20039;-54
2022/12/18 11:51:10;;;;;;;14.93;7.72;;;-2.30;99.90;;;;;;5113605;27;20062;-53
2022/12/18 11:53:38;;;;;;;;;;;-2.30;99.90;;;;;;5143921;27;20058;-51
2022/12/18 11:56:35;;;;;;;14.80;7.90;;;-2.30;99.90;;;;;;5153761;27;19919;-55
2022/12/18 11:59:15;;;;;;;14.55;7.93;;;-2.30;99.90;;;;;;5164523;27;20041;-53
2022/12/18 12:02:19;;;;;;;12.65;6.97;;;-2.30;99.90;;;;;;5163706;27;20102;-54
2022/12/18 12:05:36;;;;;;;14.25;7.38;;;-2.30;99.90;;;;;;5127230;27;20061;-53
2022/12/18 12:08:08;;;;;;;13.88;6.88;;;-2.30;99.90;;;;;;5119984;27;20083;-55
2022/12/18 12:11:00;;;;;;;16.90;9.27;;;-2.20;99.90;;;;;;5163743;27;20107;-54
2022/12/18 12:14:09;;;;;;;14.15;7.95;;;-2.20;99.90;;;;;;5163487;27;20038;-54
2022/12/18 12:16:54;;;;;;;12.73;7.22;;;-2.20;99.90;;;;;;5042516;28;20096;-55
2022/12/18 12:19:37;;;;;;;13.10;7.13;;;-2.10;99.90;;;;;;5155746;27;20058;-52
2022/12/18 12:22:28;;;;;;;15.25;7.10;;;-2.10;99.90;;;;;;5163821;27;20046;-54
2022/12/18 12:25:03;;;;;;;16.38;9.38;;;-2.10;99.90;;;;;;5163965;27;20604;-55
2022/12/18 12:28:00;;;;;;;14.10;6.57;;;-2.00;99.90;;;;;;5163068;27;20043;-54
2022/12/18 12:31:05;;;;;;;13.10;6.18;;;-2.00;99.90;;;;;;5163589;27;20046;-54
2022/12/18 12:33:36;;;;;;;13.43;7.00;;;-1.90;99.90;;;;;;5163530;27;20053;-52
2022/12/18 12:36:28;;;;;;;13.35;6.53;;;-1.90;99.90;;;;;;5163315;27;20085;-53
2022/12/18 12:39:01;;;;;;;12.40;6.00;;;-1.90;99.90;;;;;;5163421;27;20051;-51
2022/12/18 12:44:29;;;;;;;13.30;6.03;;;-1.80;99.90;;;;;;5163138;27;20387;-54
2022/12/18 12:47:00;;;;;;;11.95;5.82;;;-1.80;99.90;;;;;;5163351;27;20109;-54
2022/12/18 12:49:31;;;;;;;10.15;5.43;;;-1.70;99.90;;;;;;5162868;27;20049;-55
2022/12/18 12:52:04;;;;;;;13.90;6.63;;;-1.70;99.90;;;;;;5163354;27;20038;-55